createdAt,value
2018-07-08T00:00:22.232Z,24.60
2018-07-08T00:01:53.804Z,24.40
2018-07-08T00:03:25.375Z,24.50
2018-07-08T00:04:56.946Z,25.00
2018-07-08T00:06:28.517Z,24.60
2018-07-08T00:08:00.090Z,24.60
2018-07-08T00:09:31.661Z,26.00
2018-07-08T00:11:03.233Z,26.80
2018-07-08T00:12:34.804Z,28.00
2018-07-08T00:14:06.575Z,28.00
2018-07-08T00:15:37.948Z,29.30
2018-07-08T00:17:09.519Z,30.10
2018-07-08T00:18:41.091Z,33.30
2018-07-08T00:20:12.662Z,37.00
2018-07-08T00:21:44.232Z,29.20
2018-07-08T00:23:15.803Z,28.10
2018-07-08T00:24:48.148Z,28.00
2018-07-08T00:26:18.946Z,28.80
2018-07-08T00:27:50.517Z,29.10
2018-07-08T00:29:22.089Z,29.60
2018-07-08T00:30:53.863Z,28.70
2018-07-08T00:32:25.826Z,28.20
2018-07-08T00:33:56.860Z,27.50
2018-07-08T00:35:28.373Z,27.10
2018-07-08T00:36:59.945Z,29.70
2018-07-08T00:38:31.516Z,28.00
2018-07-08T00:40:03.087Z,32.90
2018-07-08T00:41:34.912Z,33.60
2018-07-08T00:43:06.231Z,32.00
2018-07-08T00:44:37.901Z,30.20
2018-07-08T00:46:09.372Z,30.50
2018-07-08T00:47:40.943Z,30.50
2018-07-08T00:49:12.515Z,29.40
2018-07-08T00:50:44.185Z,28.50
2018-07-08T00:52:15.656Z,29.50
2018-07-08T00:53:47.228Z,28.50
2018-07-08T00:55:18.798Z,28.90
2018-07-08T00:56:50.370Z,29.10
2018-07-08T00:58:21.941Z,29.60
2018-07-08T00:59:53.512Z,33.30
2018-07-08T01:01:25.086Z,32.40
2018-07-08T01:02:56.654Z,28.60
2018-07-08T01:04:28.226Z,32.10
2018-07-08T01:05:59.796Z,31.70
2018-07-08T01:07:31.367Z,31.90
2018-07-08T01:09:03.039Z,31.70
2018-07-08T01:10:34.509Z,32.80
2018-07-08T01:12:06.080Z,32.40
2018-07-08T01:13:37.652Z,31.20
2018-07-08T01:15:09.222Z,30.20
2018-07-08T01:16:40.796Z,33.30
2018-07-08T01:18:12.364Z,33.40
2018-07-08T01:19:43.935Z,33.20
2018-07-08T01:21:15.506Z,31.30
2018-07-08T01:22:47.077Z,36.80
2018-07-08T01:24:18.648Z,37.10
2018-07-08T01:25:50.221Z,32.50
2018-07-08T01:27:21.891Z,31.90
2018-07-08T01:28:53.361Z,34.00
2018-07-08T01:30:24.932Z,34.10
2018-07-08T01:31:56.503Z,35.30
2018-07-08T01:33:28.074Z,36.00
2018-07-08T01:34:59.644Z,34.90
2018-07-08T01:36:31.215Z,37.20
2018-07-08T01:38:02.786Z,37.60
2018-07-08T01:39:34.358Z,37.20
2018-07-08T01:41:05.928Z,33.80
2018-07-08T01:42:37.499Z,35.80
2018-07-08T01:44:09.069Z,35.30
2018-07-08T01:45:40.890Z,38.10
2018-07-08T01:47:12.211Z,41.80
2018-07-08T01:48:43.781Z,41.80
2018-07-08T01:50:15.352Z,41.90
2018-07-08T01:51:46.922Z,40.60
2018-07-08T01:53:18.497Z,39.10
2018-07-08T01:54:50.067Z,37.80
2018-07-08T01:56:21.634Z,40.30
2018-07-08T01:57:53.206Z,39.30
2018-07-08T01:59:24.776Z,39.80
2018-07-08T02:00:56.354Z,43.60
2018-07-08T02:02:27.917Z,41.30
2018-07-08T02:03:59.589Z,40.80
2018-07-08T02:05:31.058Z,41.50
2018-07-08T02:07:02.676Z,43.20
2018-07-08T02:08:34.199Z,43.80
2018-07-08T02:10:05.770Z,44.00
2018-07-08T02:11:37.344Z,43.50
2018-07-08T02:13:08.912Z,43.70
2018-07-08T02:14:40.482Z,44.70
2018-07-08T02:16:12.152Z,42.50
2018-07-08T02:17:43.626Z,44.10
2018-07-08T02:19:15.194Z,43.00
2018-07-08T02:20:46.765Z,43.30
2018-07-08T02:22:18.434Z,43.30
2018-07-08T02:23:49.905Z,44.40
2018-07-08T02:25:21.476Z,45.00
2018-07-08T02:26:53.045Z,45.00
2018-07-08T02:28:24.616Z,45.40
2018-07-08T02:29:56.186Z,43.60
2018-07-08T02:31:27.757Z,46.70
2018-07-08T02:32:59.327Z,45.30
2018-07-08T02:34:31.148Z,46.60
2018-07-08T02:36:02.468Z,47.00
2018-07-08T02:37:34.038Z,47.80
2018-07-08T02:39:05.609Z,46.50
2018-07-08T02:40:37.380Z,45.70
2018-07-08T02:42:08.749Z,48.00
2018-07-08T02:43:40.319Z,48.20
2018-07-08T02:45:11.889Z,44.30
2018-07-08T02:46:43.561Z,45.70
2018-07-08T02:48:15.030Z,47.90
2018-07-08T02:49:46.600Z,48.10
2018-07-08T02:51:18.170Z,48.00
2018-07-08T02:52:49.741Z,48.30
2018-07-08T02:54:21.314Z,45.30
2018-07-08T02:55:52.881Z,48.50
2018-07-08T02:57:24.451Z,45.80
2018-07-08T02:58:56.121Z,45.40
2018-07-08T03:00:27.592Z,47.50
2018-07-08T03:01:59.172Z,49.50
2018-07-08T03:03:30.731Z,47.50
2018-07-08T03:05:02.566Z,43.90
2018-07-08T03:06:33.877Z,43.90
2018-07-08T03:08:05.441Z,44.90
2018-07-08T03:09:37.011Z,45.80
2018-07-08T03:11:08.581Z,46.90
2018-07-08T03:12:40.160Z,46.70
2018-07-08T03:14:11.727Z,47.60
2018-07-08T03:15:43.291Z,47.20
2018-07-08T03:17:15.063Z,47.80
2018-07-08T03:18:46.430Z,47.40
2018-07-08T03:20:18.001Z,45.30
2018-07-08T03:21:49.573Z,49.00
2018-07-08T03:23:21.141Z,51.20
2018-07-08T03:24:52.712Z,45.20
2018-07-08T03:26:24.283Z,46.20
2018-07-08T03:27:55.850Z,46.40
2018-07-08T03:29:27.420Z,46.90
2018-07-08T03:30:58.991Z,49.40
2018-07-08T03:32:30.560Z,48.50
2018-07-08T03:34:02.130Z,47.00
2018-07-08T03:35:33.801Z,50.80
2018-07-08T03:37:05.274Z,49.80
2018-07-08T03:38:36.840Z,49.50
2018-07-08T03:40:08.410Z,50.20
2018-07-08T03:41:39.980Z,48.40
2018-07-08T03:43:11.549Z,48.80
2018-07-08T03:44:43.120Z,50.00
2018-07-08T03:46:14.689Z,50.50
2018-07-08T03:47:46.359Z,52.50
2018-07-08T03:49:17.829Z,51.90
2018-07-08T03:50:49.399Z,54.30
2018-07-08T03:52:20.969Z,50.80
2018-07-08T03:53:52.638Z,53.00
2018-07-08T03:55:25.811Z,51.40
2018-07-08T03:56:55.678Z,52.90
2018-07-08T03:58:27.248Z,51.60
2018-07-08T03:59:58.817Z,52.00
2018-07-08T04:01:30.388Z,51.20
2018-07-08T04:03:01.958Z,50.80
2018-07-08T04:04:33.527Z,52.50
2018-07-08T04:06:05.347Z,54.00
2018-07-08T04:07:36.666Z,53.50
2018-07-08T04:09:08.236Z,54.50
2018-07-08T04:10:39.806Z,57.80
2018-07-08T04:12:11.476Z,56.90
2018-07-08T04:13:42.946Z,55.90
2018-07-08T04:15:14.528Z,57.20
2018-07-08T04:16:46.085Z,56.00
2018-07-08T04:18:17.755Z,55.30
2018-07-08T04:19:49.224Z,59.20
2018-07-08T04:21:20.794Z,59.50
2018-07-08T04:22:52.363Z,57.60
2018-07-08T04:24:23.936Z,53.00
2018-07-08T04:25:55.503Z,56.90
2018-07-08T04:27:27.072Z,56.10
2018-07-08T04:28:58.642Z,57.70
2018-07-08T04:30:30.828Z,56.00
2018-07-08T04:32:01.781Z,58.40
2018-07-08T04:33:33.350Z,57.80
2018-07-08T04:35:04.921Z,55.40
2018-07-08T04:36:36.741Z,58.50
2018-07-08T04:38:08.064Z,58.10
2018-07-08T04:39:39.629Z,58.60
2018-07-08T04:41:11.199Z,59.40
2018-07-08T04:42:42.770Z,62.70
2018-07-08T04:44:14.338Z,62.60
2018-07-08T04:45:45.908Z,61.40
2018-07-08T04:47:17.478Z,61.20
2018-07-08T04:48:49.296Z,58.90
2018-07-08T04:50:20.617Z,60.40
2018-07-08T04:51:52.185Z,57.80
2018-07-08T04:53:23.754Z,61.80
2018-07-08T04:54:55.324Z,59.30
2018-07-08T04:56:26.894Z,62.80
2018-07-08T04:57:58.464Z,61.90
2018-07-08T04:59:30.033Z,66.10
2018-07-08T05:01:01.730Z,63.00
2018-07-08T05:02:33.173Z,63.60
2018-07-08T05:04:04.741Z,69.60
2018-07-08T05:05:36.311Z,67.30
2018-07-08T05:07:07.980Z,65.80
2018-07-08T05:08:39.449Z,64.20
2018-07-08T05:10:11.019Z,68.30
2018-07-08T05:11:42.588Z,70.00
2018-07-08T05:13:14.159Z,67.80
2018-07-08T05:14:45.727Z,63.50
2018-07-08T05:16:17.296Z,68.30
2018-07-08T05:17:48.865Z,68.80
2018-07-08T05:19:20.437Z,67.20
2018-07-08T05:20:52.004Z,66.40
2018-07-08T05:22:23.573Z,67.00
2018-07-08T05:23:55.143Z,66.20
2018-07-08T05:25:26.812Z,70.20
2018-07-08T05:26:58.281Z,73.10
2018-07-08T05:28:29.850Z,71.30
2018-07-08T05:30:01.420Z,73.30
2018-07-08T05:31:32.988Z,74.70
2018-07-08T05:33:04.561Z,73.20
2018-07-08T05:34:36.128Z,70.70
2018-07-08T05:36:07.697Z,75.80
2018-07-08T05:37:39.528Z,76.60
2018-07-08T05:39:10.836Z,75.90
2018-07-08T05:40:42.407Z,79.10
2018-07-08T05:42:13.974Z,76.20
2018-07-08T05:43:45.644Z,75.30
2018-07-08T05:45:17.113Z,77.00
2018-07-08T05:46:48.682Z,88.10
2018-07-08T05:48:20.251Z,84.80
2018-07-08T05:49:51.819Z,80.40
2018-07-08T05:51:23.389Z,85.20
2018-07-08T05:52:54.958Z,74.00
2018-07-08T05:54:26.527Z,81.30
2018-07-08T05:55:58.096Z,73.60
2018-07-08T05:57:29.666Z,74.20
2018-07-08T05:59:01.235Z,71.40
2018-07-08T06:00:32.804Z,77.30
2018-07-08T06:02:04.473Z,79.70
2018-07-08T06:03:35.942Z,79.80
2018-07-08T06:05:07.512Z,83.40
2018-07-08T06:06:39.081Z,87.40
2018-07-08T06:08:10.900Z,77.60
2018-07-08T06:09:42.218Z,89.70
2018-07-08T06:11:13.789Z,84.00
2018-07-08T06:12:45.364Z,87.90
2018-07-08T06:14:16.926Z,85.40
2018-07-08T06:15:48.495Z,79.20
2018-07-08T06:17:20.065Z,86.90
2018-07-08T06:18:51.634Z,91.60
2018-07-08T06:20:23.302Z,82.60
2018-07-08T06:21:54.771Z,82.60
2018-07-08T06:23:26.341Z,74.80
2018-07-08T06:24:57.941Z,81.00
2018-07-08T06:26:29.478Z,85.50
2018-07-08T06:28:01.049Z,77.90
2018-07-08T06:29:32.620Z,75.60
2018-07-08T06:31:04.186Z,81.30
2018-07-08T06:32:35.754Z,80.40
2018-07-08T06:34:07.325Z,74.60
2018-07-08T06:35:38.893Z,82.50
2018-07-08T06:37:10.461Z,80.90
2018-07-08T06:38:42.131Z,81.10
2018-07-08T06:40:13.600Z,80.40
2018-07-08T06:41:45.169Z,84.60
2018-07-08T06:43:16.737Z,85.60
2018-07-08T06:44:48.307Z,81.00
2018-07-08T06:46:19.878Z,77.90
2018-07-08T06:47:51.447Z,79.80
2018-07-08T06:49:23.014Z,78.90
2018-07-08T06:50:54.683Z,86.70
2018-07-08T06:52:26.153Z,77.10
2018-07-08T06:53:57.720Z,79.90
2018-07-08T06:55:29.843Z,84.30
2018-07-08T06:57:00.963Z,84.40
2018-07-08T06:58:32.530Z,77.20
2018-07-08T07:00:03.998Z,79.40
2018-07-08T07:01:35.568Z,80.60
2018-07-08T07:03:07.134Z,72.60
2018-07-08T07:04:38.704Z,72.30
2018-07-08T07:06:10.272Z,80.00
2018-07-08T07:07:41.842Z,82.30
2018-07-08T07:09:13.411Z,85.20
2018-07-08T07:10:44.981Z,79.00
2018-07-08T07:12:16.549Z,78.90
2018-07-08T07:13:48.118Z,82.60
2018-07-08T07:15:19.796Z,82.20
2018-07-08T07:16:51.256Z,82.10
2018-07-08T07:18:22.825Z,79.70
2018-07-08T07:19:54.395Z,78.80
2018-07-08T07:21:26.063Z,82.10
2018-07-08T07:22:57.535Z,83.00
2018-07-08T07:24:29.101Z,86.10
2018-07-08T07:26:00.669Z,81.80
2018-07-08T07:27:32.239Z,87.90
2018-07-08T07:29:03.809Z,88.40
2018-07-08T07:30:35.376Z,91.60
2018-07-08T07:32:06.945Z,91.30
2018-07-08T07:33:38.867Z,90.10
2018-07-08T07:35:10.083Z,90.90
2018-07-08T07:36:41.652Z,92.10
2018-07-08T07:38:13.221Z,91.50
2018-07-08T07:39:45.040Z,90.50
2018-07-08T07:41:16.358Z,92.50
2018-07-08T07:42:47.927Z,92.60
2018-07-08T07:44:19.497Z,89.50
2018-07-08T07:45:51.065Z,91.40
2018-07-08T07:47:22.634Z,91.10
2018-07-08T07:48:54.203Z,90.40
2018-07-08T07:50:25.772Z,91.00
2018-07-08T07:51:57.541Z,91.80
2018-07-08T07:53:28.909Z,92.50
2018-07-08T07:55:00.478Z,93.80
2018-07-08T07:56:32.047Z,96.70
2018-07-08T07:58:03.616Z,92.90
2018-07-08T07:59:35.185Z,90.80
2018-07-08T08:01:06.753Z,91.70
2018-07-08T08:02:38.322Z,91.10
2018-07-08T08:04:09.890Z,92.90
2018-07-08T08:05:41.459Z,91.20
2018-07-08T08:07:13.028Z,90.40
2018-07-08T08:08:44.625Z,89.30
2018-07-08T08:10:16.545Z,93.30
2018-07-08T08:11:47.762Z,84.30
2018-07-08T08:13:19.330Z,85.70
2018-07-08T08:14:50.900Z,88.70
2018-07-08T08:16:22.469Z,86.20
2018-07-08T08:17:54.009Z,88.00
2018-07-08T08:19:25.579Z,89.30
2018-07-08T08:20:57.196Z,91.60
2018-07-08T08:22:28.828Z,88.80
2018-07-08T08:24:00.283Z,90.80
2018-07-08T08:25:31.852Z,93.70
2018-07-08T08:27:03.427Z,92.70
2018-07-08T08:28:35.091Z,92.90
2018-07-08T08:30:06.557Z,92.50
2018-07-08T08:31:38.126Z,92.30
2018-07-08T08:33:09.697Z,98.30
2018-07-08T08:34:41.263Z,94.80
2018-07-08T08:36:12.831Z,99.10
2018-07-08T08:37:44.399Z,96.30
2018-07-08T08:39:15.968Z,98.40
2018-07-08T08:40:47.789Z,97.10
2018-07-08T08:42:19.107Z,92.40
2018-07-08T08:43:50.673Z,92.10
2018-07-08T08:45:22.243Z,95.60
2018-07-08T08:46:53.910Z,94.60
2018-07-08T08:48:25.378Z,95.10
2018-07-08T08:49:56.946Z,95.50
2018-07-08T08:51:28.515Z,92.80
2018-07-08T08:53:00.183Z,94.60
2018-07-08T08:54:31.651Z,90.00
2018-07-08T08:56:03.221Z,90.40
2018-07-08T08:57:34.789Z,90.30
2018-07-08T08:59:06.356Z,90.50
2018-07-08T09:00:37.925Z,92.10
2018-07-08T09:02:09.493Z,90.80
2018-07-08T09:03:41.113Z,91.40
2018-07-08T09:05:12.731Z,88.40
2018-07-08T09:06:44.208Z,91.70
2018-07-08T09:08:15.768Z,92.70
2018-07-08T09:09:47.335Z,91.90
2018-07-08T09:11:19.153Z,91.90
2018-07-08T09:12:50.471Z,90.30
2018-07-08T09:14:22.039Z,91.20
2018-07-08T09:15:53.607Z,90.70
2018-07-08T09:17:25.176Z,87.20
2018-07-08T09:18:56.744Z,89.50
2018-07-08T09:20:28.312Z,88.60
2018-07-08T09:21:59.880Z,87.80
2018-07-08T09:23:31.552Z,88.70
2018-07-08T09:25:03.017Z,93.20
2018-07-08T09:26:34.585Z,90.20
2018-07-08T09:28:06.154Z,90.50
2018-07-08T09:29:37.721Z,93.50
2018-07-08T09:31:09.290Z,88.90
2018-07-08T09:32:40.858Z,88.60
2018-07-08T09:34:12.426Z,88.50
2018-07-08T09:35:43.996Z,86.60
2018-07-08T09:37:15.562Z,91.60
2018-07-08T09:38:47.239Z,87.70
2018-07-08T09:40:18.702Z,89.10
2018-07-08T09:41:50.618Z,92.00
2018-07-08T09:43:21.836Z,90.40
2018-07-08T09:44:53.403Z,90.30
2018-07-08T09:46:24.971Z,87.10
2018-07-08T09:47:56.541Z,82.80
2018-07-08T09:49:28.111Z,83.70
2018-07-08T09:50:59.679Z,83.60
2018-07-08T09:52:31.320Z,84.80
2018-07-08T09:54:02.913Z,82.00
2018-07-08T09:55:34.380Z,78.60
2018-07-08T09:57:05.952Z,79.50
2018-07-08T09:58:37.517Z,80.90
2018-07-08T10:00:09.186Z,83.00
2018-07-08T10:03:12.222Z,80.70
2018-07-08T10:04:43.819Z,77.00
2018-07-08T10:06:15.359Z,75.00
2018-07-08T10:07:46.931Z,77.00
2018-07-08T10:09:18.699Z,74.60
2018-07-08T10:10:50.120Z,73.90
2018-07-08T10:12:21.883Z,72.90
2018-07-08T10:13:53.328Z,74.20
2018-07-08T10:15:24.771Z,67.20
2018-07-08T10:16:56.643Z,66.50
2018-07-08T10:18:28.010Z,67.70
2018-07-08T10:19:59.484Z,63.60
2018-07-08T10:21:31.074Z,63.50
2018-07-08T10:24:34.593Z,64.30
2018-07-08T10:26:05.759Z,61.80
2018-07-08T10:27:37.329Z,62.30
2018-07-08T10:29:08.899Z,60.80
2018-07-08T10:30:40.471Z,58.20
2018-07-08T10:32:12.044Z,60.70
2018-07-08T10:33:43.614Z,58.50
2018-07-08T10:35:15.185Z,57.80
2018-07-08T10:36:46.858Z,57.50
2018-07-08T10:38:18.375Z,54.60
2018-07-08T10:39:49.901Z,55.40
2018-07-08T10:41:21.473Z,55.00
2018-07-08T10:42:53.045Z,55.90
2018-07-08T10:45:56.194Z,53.40
2018-07-08T10:47:27.766Z,53.50
2018-07-08T10:48:59.349Z,54.30
2018-07-08T10:50:30.912Z,53.80
2018-07-08T10:52:02.488Z,53.50
2018-07-08T10:53:34.066Z,51.70
2018-07-08T10:55:05.736Z,52.50
2018-07-08T10:56:37.213Z,52.00
2018-07-08T10:58:08.787Z,51.10
2018-07-08T11:01:11.937Z,49.40
2018-07-08T11:02:43.513Z,50.50
2018-07-08T11:04:15.090Z,49.00
2018-07-08T11:07:18.243Z,49.60
2018-07-08T11:08:49.826Z,50.10
2018-07-08T11:10:21.395Z,46.80
2018-07-08T11:11:52.973Z,46.60
2018-07-08T11:13:24.902Z,47.00
2018-07-08T11:14:56.128Z,46.60
2018-07-08T11:16:27.704Z,47.50
2018-07-08T11:17:59.281Z,47.20
2018-07-08T11:19:30.860Z,46.70
2018-07-08T11:21:02.438Z,46.00
2018-07-08T11:22:34.014Z,43.70
2018-07-08T11:24:05.591Z,41.30
2018-07-08T11:25:37.291Z,38.10
2018-07-08T11:27:08.749Z,39.20
2018-07-08T11:28:40.671Z,38.80
2018-07-08T11:30:12.433Z,39.30
2018-07-08T11:31:43.580Z,38.00
2018-07-08T11:36:18.213Z,37.60
2018-07-08T11:37:49.791Z,38.50
2018-07-08T11:39:21.370Z,36.40
2018-07-08T11:40:52.949Z,37.30
2018-07-08T11:42:24.730Z,35.00
2018-07-08T11:43:56.356Z,39.00
2018-07-08T11:45:27.684Z,36.40
2018-07-08T11:46:59.264Z,36.60
2018-07-08T11:48:30.842Z,37.60
2018-07-08T11:50:02.723Z,37.70
2018-07-08T11:51:34.001Z,35.60
2018-07-08T11:53:05.580Z,34.70
2018-07-08T11:54:37.159Z,34.50
2018-07-08T11:56:08.738Z,36.90
2018-07-08T11:57:40.318Z,36.70
2018-07-08T11:59:11.897Z,35.60
2018-07-08T12:00:43.476Z,34.30
2018-07-08T12:02:15.056Z,35.50
2018-07-08T12:03:46.635Z,32.80
2018-07-08T12:05:18.215Z,35.30
2018-07-08T12:06:49.794Z,33.20
2018-07-08T12:08:21.485Z,31.40
2018-07-08T12:09:52.954Z,31.20
2018-07-08T12:11:24.533Z,31.20
2018-07-08T12:12:56.112Z,29.50
2018-07-08T12:14:27.974Z,29.10
2018-07-08T12:15:59.272Z,28.30
2018-07-08T12:17:30.853Z,30.10
2018-07-08T12:19:02.435Z,29.10
2018-07-08T12:20:34.012Z,27.20
2018-07-08T12:22:05.638Z,29.20
2018-07-08T12:23:37.173Z,29.00
2018-07-08T12:25:08.753Z,27.30
2018-07-08T12:26:40.434Z,27.20
2018-07-08T12:28:11.914Z,27.60
2018-07-08T12:29:43.495Z,27.70
2018-07-08T12:31:15.278Z,26.60
2018-07-08T12:32:46.657Z,27.90
2018-07-08T12:34:18.238Z,26.70
2018-07-08T12:35:49.818Z,24.50
2018-07-08T12:37:21.400Z,25.50
2018-07-08T12:40:24.563Z,24.90
2018-07-08T12:41:56.143Z,24.30
2018-07-08T12:43:27.723Z,24.50
2018-07-08T12:44:59.305Z,24.80
2018-07-08T12:46:30.986Z,24.80
2018-07-08T12:48:02.467Z,23.70
2018-07-08T12:49:34.049Z,24.80
2018-07-08T12:51:05.629Z,23.40
2018-07-08T12:52:37.212Z,23.90
2018-07-08T12:54:08.794Z,22.80
2018-07-08T12:55:40.908Z,23.50
2018-07-08T12:57:11.955Z,22.90
2018-07-08T12:58:43.694Z,24.60
2018-07-08T13:00:15.116Z,23.10
2018-07-08T13:01:47.001Z,22.20
2018-07-08T13:03:18.583Z,21.60
2018-07-08T13:04:50.893Z,21.80
2018-07-08T13:06:21.451Z,21.00
2018-07-08T13:07:53.023Z,22.20
2018-07-08T13:10:56.185Z,21.80
2018-07-08T13:13:59.349Z,22.30
2018-07-08T13:15:30.930Z,22.50
2018-07-08T13:18:35.484Z,21.70
2018-07-08T13:20:05.773Z,21.40
2018-07-08T13:21:37.257Z,21.10
2018-07-08T13:23:08.839Z,21.80
2018-07-08T13:24:40.723Z,20.50
2018-07-08T13:26:12.070Z,20.70
2018-07-08T13:27:43.786Z,21.00
2018-07-08T13:29:15.166Z,20.00
2018-07-08T13:30:47.051Z,20.70
2018-07-08T13:32:18.460Z,20.60
2018-07-08T13:33:49.913Z,19.50
2018-07-08T13:35:21.697Z,19.30
2018-07-08T13:36:53.077Z,19.50
2018-07-08T13:38:24.662Z,19.90
2018-07-08T13:39:56.241Z,18.00
2018-07-08T13:41:27.824Z,18.60
2018-07-08T13:42:59.708Z,17.80
2018-07-08T13:44:30.987Z,17.40
2018-07-08T13:47:34.152Z,16.20
2018-07-08T13:49:06.517Z,16.20
2018-07-08T13:50:37.316Z,17.00
2018-07-08T13:53:40.481Z,16.00
2018-07-08T13:56:43.646Z,15.10
2018-07-08T13:59:47.013Z,14.20
2018-07-08T14:01:18.395Z,14.40
2018-07-08T14:02:50.079Z,15.40
2018-07-08T14:04:21.560Z,14.70
2018-07-08T14:05:53.447Z,15.50
2018-07-08T14:07:24.726Z,16.00
2018-07-08T14:10:28.093Z,14.90
2018-07-08T14:11:59.475Z,15.40
2018-07-08T14:13:31.361Z,15.60
2018-07-08T14:15:02.645Z,15.40
2018-07-08T14:16:34.224Z,16.00
2018-07-08T14:19:37.924Z,15.80
2018-07-08T14:24:12.390Z,13.90
2018-07-08T14:25:43.814Z,12.50
2018-07-08T14:27:15.307Z,12.50
2018-07-08T14:30:18.475Z,12.40
2018-07-08T14:31:50.591Z,12.50
2018-07-08T14:33:21.641Z,12.20
2018-07-08T14:34:53.228Z,11.30
2018-07-08T14:36:25.213Z,10.30
2018-07-08T14:37:56.392Z,10.30
2018-07-08T14:39:27.976Z,10.10
2018-07-08T14:42:31.244Z,11.30
2018-07-08T14:44:02.728Z,11.10
2018-07-08T14:45:34.842Z,9.80
2018-07-08T14:47:05.893Z,10.60
2018-07-08T14:48:37.478Z,9.80
2018-07-08T14:50:09.061Z,10.80
2018-07-08T14:54:43.812Z,10.40
2018-07-08T14:56:15.708Z,10.00
2018-07-08T14:57:47.186Z,9.90
2018-07-08T14:59:18.867Z,10.10
2018-07-08T15:00:50.782Z,10.80
2018-07-08T15:02:21.733Z,9.10
2018-07-08T15:03:53.317Z,9.90
2018-07-08T15:05:25.507Z,10.20
2018-07-08T15:06:56.889Z,9.70
2018-07-08T15:08:28.067Z,8.90
2018-07-08T15:09:59.653Z,10.40
2018-07-08T15:11:31.768Z,8.80
2018-07-08T15:13:03.022Z,8.70
2018-07-08T15:14:34.409Z,8.70
2018-07-08T15:16:06.247Z,8.50
2018-07-08T15:17:37.576Z,7.60
2018-07-08T15:19:09.254Z,8.10
2018-07-08T15:20:40.738Z,7.50
2018-07-08T15:22:12.855Z,7.10
2018-07-08T15:23:44.209Z,7.90
2018-07-08T15:25:15.490Z,8.80
2018-07-08T15:26:47.073Z,8.80
2018-07-08T15:31:21.827Z,9.40
2018-07-08T15:32:53.613Z,8.60
2018-07-08T15:34:24.999Z,6.80
2018-07-08T15:35:56.785Z,7.10
2018-07-08T15:37:28.263Z,6.40
2018-07-08T15:38:59.746Z,6.90
2018-07-08T15:40:31.331Z,6.40
2018-07-08T15:43:34.701Z,5.40
2018-07-08T15:45:06.084Z,5.50
2018-07-08T15:46:37.670Z,5.30
2018-07-08T15:48:09.253Z,5.70
2018-07-08T15:49:41.347Z,6.20
2018-07-08T15:51:12.422Z,5.80
2018-07-08T15:54:15.593Z,5.70
2018-07-08T15:55:48.514Z,5.50
2018-07-08T15:57:18.760Z,4.70
2018-07-08T15:58:50.345Z,5.40
2018-07-08T16:00:21.930Z,5.70
2018-07-08T16:03:25.099Z,6.00
2018-07-08T16:04:56.684Z,6.20
2018-07-08T16:06:28.267Z,6.50
2018-07-08T16:07:59.851Z,5.80
2018-07-08T16:09:31.840Z,6.30
2018-07-08T16:11:03.021Z,7.00
2018-07-08T16:12:34.605Z,6.10
2018-07-08T16:14:06.190Z,6.50
2018-07-08T16:15:37.875Z,6.40
2018-07-08T16:17:10.092Z,7.40
2018-07-08T16:18:40.989Z,7.20
2018-07-08T16:20:12.831Z,7.30
2018-07-08T16:21:44.644Z,6.50
2018-07-08T16:23:15.696Z,6.50
2018-07-08T16:24:47.381Z,6.70
2018-07-08T16:27:50.461Z,7.20
2018-07-08T16:30:53.924Z,7.10
2018-07-08T16:32:25.204Z,7.30
2018-07-08T16:33:56.888Z,7.80
2018-07-08T16:35:28.372Z,7.30
2018-07-08T16:36:59.958Z,7.00
2018-07-08T16:38:31.542Z,7.80
2018-07-08T16:40:03.275Z,8.30
2018-07-08T16:41:34.929Z,7.20
2018-07-08T16:43:06.295Z,7.20
2018-07-08T16:44:37.880Z,7.10
2018-07-08T16:46:09.465Z,7.30
2018-07-08T16:47:41.049Z,8.40
2018-07-08T16:49:12.635Z,7.60
2018-07-08T16:52:15.904Z,8.00
2018-07-08T16:53:47.391Z,7.50
2018-07-08T16:55:19.173Z,7.60
2018-07-08T16:56:51.162Z,8.30
2018-07-08T16:58:22.141Z,8.90
2018-07-08T16:59:53.724Z,7.70
2018-07-08T17:01:25.309Z,8.20
2018-07-08T17:02:56.902Z,8.40
2018-07-08T17:04:29.009Z,8.10
2018-07-08T17:06:00.061Z,7.50
2018-07-08T17:07:31.645Z,8.00
2018-07-08T17:09:03.229Z,7.90
2018-07-08T17:12:06.802Z,8.10
2018-07-08T17:13:37.993Z,7.40
2018-07-08T17:15:09.566Z,7.60
2018-07-08T17:16:41.684Z,6.80
2018-07-08T17:18:12.937Z,7.00
2018-07-08T17:19:44.321Z,7.00
2018-07-08T17:21:15.910Z,6.20
2018-07-08T17:22:47.486Z,6.80
2018-07-08T17:24:19.171Z,6.40
2018-07-08T17:25:50.655Z,6.70
2018-07-08T17:27:22.239Z,6.90
2018-07-08T17:28:53.823Z,7.00
2018-07-08T17:30:25.508Z,6.60
2018-07-08T17:31:56.992Z,7.30
2018-07-08T17:33:28.581Z,7.00
2018-07-08T17:35:00.160Z,7.00
2018-07-08T17:36:31.744Z,6.70
2018-07-08T17:38:03.862Z,6.50
2018-07-08T17:39:34.917Z,6.00
2018-07-08T17:41:06.804Z,6.30
2018-07-08T17:42:38.080Z,6.00
2018-07-08T17:44:09.664Z,6.70
2018-07-08T17:45:41.252Z,6.30
2018-07-08T17:48:45.051Z,6.40
2018-07-08T17:50:15.999Z,6.30
2018-07-08T17:53:19.167Z,6.30
2018-07-08T17:54:51.008Z,6.10
2018-07-08T17:56:22.333Z,7.00
2018-07-08T17:57:53.917Z,6.30
2018-07-08T17:59:25.503Z,6.00
2018-07-08T18:02:28.668Z,6.00
2018-07-08T18:04:00.256Z,6.50
2018-07-08T18:07:03.418Z,6.00
2018-07-08T18:08:35.303Z,6.50
2018-07-08T18:10:06.585Z,6.40
2018-07-08T18:11:38.167Z,6.40
2018-07-08T18:13:09.753Z,6.80
2018-07-08T18:14:41.433Z,5.70
2018-07-08T18:17:44.804Z,6.00
2018-07-08T18:19:16.083Z,6.60
2018-07-08T18:20:47.668Z,6.80
2018-07-08T18:22:19.251Z,6.60
2018-07-08T18:25:22.414Z,6.20
2018-07-08T18:26:54.098Z,6.30
2018-07-08T18:28:25.579Z,6.30
2018-07-08T18:29:57.162Z,7.40
2018-07-08T18:31:28.984Z,6.10
2018-07-08T18:33:00.579Z,5.70
2018-07-08T18:34:31.913Z,5.80
2018-07-08T18:36:03.492Z,6.70
2018-07-08T18:37:35.075Z,6.00
2018-07-08T18:39:06.657Z,6.10
2018-07-08T18:40:38.240Z,5.70
2018-07-08T18:42:09.822Z,6.10
2018-07-08T18:43:41.404Z,5.90
2018-07-08T18:45:13.188Z,6.10
2018-07-08T18:46:44.573Z,6.70
2018-07-08T18:48:16.153Z,6.70
2018-07-08T18:52:50.899Z,6.50
2018-07-08T18:54:23.418Z,6.30
2018-07-08T18:55:54.063Z,6.60
2018-07-08T18:57:25.646Z,6.30
2018-07-08T18:58:57.228Z,6.40
2018-07-08T19:02:00.395Z,7.30
2018-07-08T19:03:31.974Z,6.90
2018-07-08T19:05:03.657Z,6.50
2018-07-08T19:06:35.138Z,7.40
2018-07-08T19:08:06.719Z,6.80
2018-07-08T19:09:38.301Z,7.20
2018-07-08T19:11:09.886Z,7.20
2018-07-08T19:12:41.465Z,7.00
2018-07-08T19:14:13.046Z,7.00
2018-07-08T19:15:44.630Z,7.70
2018-07-08T19:17:16.212Z,7.30
2018-07-08T19:18:47.790Z,7.60
2018-07-08T19:20:19.376Z,7.20
2018-07-08T19:21:50.953Z,7.50
2018-07-08T19:23:22.636Z,6.70
2018-07-08T19:24:54.115Z,6.70
2018-07-08T19:26:25.696Z,7.20
2018-07-08T19:27:57.581Z,6.70
2018-07-08T19:29:28.857Z,7.20
2018-07-08T19:31:00.463Z,6.20
2018-07-08T19:32:32.479Z,7.30
2018-07-08T19:34:04.206Z,6.80
2018-07-08T19:37:06.768Z,6.80
2018-07-08T19:38:38.343Z,6.50
2018-07-08T19:40:09.923Z,7.10
2018-07-08T19:43:13.985Z,7.10
2018-07-08T19:44:44.663Z,8.10
2018-07-08T19:46:16.393Z,7.60
2018-07-08T19:47:47.824Z,8.00
2018-07-08T19:49:19.607Z,7.50
2018-07-08T19:50:50.984Z,7.00
2018-07-08T19:52:22.564Z,7.60
2018-07-08T19:53:54.143Z,6.90
2018-07-08T19:55:25.724Z,7.30
2018-07-08T19:56:57.505Z,7.20
2018-07-08T19:58:29.188Z,7.60
2018-07-08T20:00:00.462Z,7.80
2018-07-08T20:01:32.141Z,7.30
2018-07-08T20:03:03.620Z,7.40
2018-07-08T20:04:35.199Z,7.80
2018-07-08T20:06:06.981Z,7.40
2018-07-08T20:07:38.384Z,7.80
2018-07-08T20:09:10.139Z,7.90
2018-07-08T20:10:41.821Z,8.70
2018-07-08T20:12:13.094Z,9.10
2018-07-08T20:13:44.676Z,8.40
2018-07-08T20:15:16.251Z,8.30
2018-07-08T20:16:47.830Z,8.70
2018-07-08T20:18:19.409Z,8.90
2018-07-08T20:19:51.491Z,9.50
2018-07-08T20:21:22.934Z,9.60
2018-07-08T20:22:54.145Z,9.50
2018-07-08T20:24:25.727Z,11.10
2018-07-08T20:25:57.300Z,10.70
2018-07-08T20:29:00.459Z,10.10
2018-07-08T20:30:32.037Z,9.70
2018-07-08T20:32:03.611Z,10.20
2018-07-08T20:33:35.492Z,10.70
2018-07-08T20:35:07.750Z,9.90
2018-07-08T20:36:38.388Z,9.90
2018-07-08T20:38:10.022Z,10.20
2018-07-08T20:39:41.498Z,10.00
2018-07-08T20:41:13.076Z,9.80
2018-07-08T20:42:44.654Z,9.70
2018-07-08T20:44:16.230Z,8.90
2018-07-08T20:45:47.806Z,10.60
2018-07-08T20:47:19.383Z,10.50
2018-07-08T20:48:51.356Z,10.60
2018-07-08T20:50:22.636Z,10.70
2018-07-08T20:51:54.116Z,11.70
2018-07-08T20:53:25.689Z,11.50
2018-07-08T20:54:57.472Z,11.50
2018-07-08T20:56:28.941Z,11.10